createdAt,value
2022-12-14T00:00:04.630Z,-3.48
2022-12-14T00:02:31.216Z,-3.46
2022-12-14T00:04:57.674Z,-3.28
2022-12-14T00:07:24.090Z,-3.28
2022-12-14T00:09:50.435Z,-3.31
2022-12-14T00:12:16.859Z,-3.44
2022-12-14T00:14:43.200Z,-3.37
2022-12-14T00:17:09.588Z,-3.49
2022-12-14T00:19:36.195Z,-3.43
2022-12-14T00:22:02.762Z,-3.48
2022-12-14T00:24:29.203Z,-3.52
2022-12-14T00:26:55.587Z,-3.51
2022-12-14T00:29:22.015Z,-3.54
2022-12-14T00:31:49.572Z,-3.10
2022-12-14T00:34:16.033Z,-3.33
2022-12-14T00:36:42.564Z,-3.36
2022-12-14T00:39:09.022Z,-3.29
2022-12-14T00:41:35.440Z,-3.45
2022-12-14T00:44:01.996Z,-3.20
2022-12-14T00:46:28.484Z,-3.42
2022-12-14T00:48:54.859Z,-3.48
2022-12-14T00:51:21.215Z,-3.44
2022-12-14T00:53:47.621Z,-3.53
2022-12-14T00:56:13.994Z,-3.38
2022-12-14T00:58:40.526Z,-3.31
2022-12-14T01:01:10.215Z,-3.22
2022-12-14T01:03:36.842Z,-3.48
2022-12-14T01:06:03.742Z,-3.39
2022-12-14T01:08:30.589Z,-3.46
2022-12-14T01:10:56.911Z,-3.41
2022-12-14T01:13:23.304Z,-3.39
2022-12-14T01:15:49.866Z,-3.38
2022-12-14T01:18:16.754Z,-3.53
2022-12-14T01:20:43.407Z,-3.57
2022-12-14T01:23:09.825Z,-3.20
2022-12-14T01:25:36.278Z,-3.50
2022-12-14T01:28:02.678Z,-3.50
2022-12-14T01:30:29.326Z,-3.35
2022-12-14T01:32:55.695Z,-3.51
2022-12-14T01:35:22.307Z,-3.43
2022-12-14T01:37:49.124Z,-3.46
2022-12-14T01:40:16.118Z,-3.22
2022-12-14T01:42:42.484Z,-3.37
2022-12-14T01:45:19.358Z,-3.35
2022-12-14T01:47:53.719Z,-3.41
2022-12-14T01:50:34.267Z,-3.57
2022-12-14T01:53:12.043Z,-3.51
2022-12-14T01:55:42.720Z,-3.44
2022-12-14T01:58:24.174Z,-3.54
2022-12-14T02:00:54.496Z,-3.41
2022-12-14T02:03:28.778Z,-3.44
2022-12-14T02:06:07.004Z,-3.12
2022-12-14T02:08:33.671Z,-3.06
2022-12-14T02:11:02.122Z,-3.18
2022-12-14T02:13:34.172Z,-3.17
2022-12-14T02:16:01.089Z,-3.15
2022-12-14T02:18:30.359Z,-3.34
2022-12-14T02:21:17.974Z,-3.29
2022-12-14T02:24:09.208Z,-3.47
2022-12-14T02:26:54.925Z,-3.29
2022-12-14T02:29:43.432Z,-3.34
2022-12-14T02:32:24.761Z,-3.39
2022-12-14T02:35:01.347Z,-3.30
2022-12-14T02:37:27.748Z,-3.28
2022-12-14T02:40:12.351Z,-3.20
2022-12-14T02:42:54.420Z,-3.11
2022-12-14T02:45:30.969Z,-2.97
2022-12-14T02:48:06.946Z,-3.11
2022-12-14T02:50:48.361Z,-3.26
2022-12-14T02:53:20.458Z,-3.36
2022-12-14T02:55:57.724Z,-3.23
2022-12-14T02:58:29.203Z,-3.37
2022-12-14T03:00:56.754Z,-3.39
2022-12-14T03:03:23.952Z,-3.22
2022-12-14T03:06:02.336Z,-3.25
2022-12-14T03:08:33.360Z,-3.16
2022-12-14T03:11:06.223Z,-3.32
2022-12-14T03:13:32.618Z,-3.42
2022-12-14T03:16:14.709Z,-3.18
2022-12-14T03:18:45.874Z,-3.30
2022-12-14T03:21:16.697Z,-3.29
2022-12-14T03:23:45.500Z,-3.28
2022-12-14T03:26:21.676Z,-3.17
2022-12-14T03:28:53.777Z,-3.42
2022-12-14T03:31:49.147Z,-3.63
2022-12-14T03:34:19.206Z,-3.61
2022-12-14T03:36:54.053Z,-3.54
2022-12-14T03:39:29.394Z,-3.43
2022-12-14T03:42:21.305Z,-3.43
2022-12-14T03:45:22.962Z,-3.59
2022-12-14T03:47:55.467Z,-3.63
2022-12-14T03:50:30.970Z,-3.49
2022-12-14T03:53:07.262Z,-3.38
2022-12-14T03:55:41.398Z,-3.41
2022-12-14T03:58:35.902Z,-3.22
2022-12-14T04:01:14.175Z,-3.29
2022-12-14T04:03:56.331Z,-3.38
2022-12-14T04:06:41.179Z,-3.40
2022-12-14T04:09:36.850Z,-3.23
2022-12-14T04:12:29.125Z,-3.34
2022-12-14T04:15:03.323Z,-3.49
2022-12-14T04:17:34.262Z,-3.38
2022-12-14T04:20:24.389Z,-3.56
2022-12-14T04:23:02.442Z,-3.50
2022-12-14T04:25:35.388Z,-3.58
2022-12-14T04:28:20.254Z,-3.58
2022-12-14T04:30:46.843Z,-3.60
2022-12-14T04:33:14.515Z,-3.56
2022-12-14T04:35:42.624Z,-3.49
2022-12-14T04:38:35.031Z,-3.45
2022-12-14T04:41:06.987Z,-3.51
2022-12-14T04:43:38.887Z,-3.41
2022-12-14T04:46:07.195Z,-3.38
2022-12-14T04:48:47.262Z,-3.50
2022-12-14T04:51:30.370Z,-3.23
2022-12-14T04:54:08.853Z,-3.42
2022-12-14T04:56:51.326Z,-3.44
2022-12-14T04:59:17.796Z,-3.29
2022-12-14T05:02:06.237Z,-3.33
2022-12-14T05:04:46.779Z,-3.12
2022-12-14T05:07:51.638Z,-3.28
2022-12-14T05:10:30.183Z,-3.26
2022-12-14T05:13:05.044Z,-3.22
2022-12-14T05:15:45.576Z,-3.06
2022-12-14T05:18:12.278Z,-3.15
2022-12-14T05:20:38.664Z,-3.14
2022-12-14T05:23:05.050Z,-3.15
2022-12-14T05:25:31.509Z,-3.14
2022-12-14T05:27:57.976Z,-3.14
2022-12-14T05:30:24.640Z,-3.08
2022-12-14T05:32:51.144Z,-3.01
2022-12-14T05:35:17.737Z,-3.00
2022-12-14T05:37:44.354Z,-3.05
2022-12-14T05:40:11.402Z,-3.06
2022-12-14T05:42:44.145Z,-3.09
2022-12-14T05:45:12.956Z,-2.97
2022-12-14T05:47:40.174Z,-3.01
2022-12-14T05:50:07.259Z,-3.03
2022-12-14T05:52:34.060Z,-3.06
2022-12-14T05:55:04.437Z,-3.08
2022-12-14T05:57:31.447Z,-2.96
2022-12-14T05:59:57.840Z,-2.97
2022-12-14T06:02:24.650Z,-2.96
2022-12-14T06:04:51.243Z,-2.98
2022-12-14T06:07:19.052Z,-2.91
2022-12-14T06:09:47.135Z,-2.71
2022-12-14T06:12:13.794Z,-2.73
2022-12-14T06:14:40.364Z,-2.78
2022-12-14T06:17:06.898Z,-2.80
2022-12-14T06:19:33.291Z,-2.75
2022-12-14T06:21:59.605Z,-2.79
2022-12-14T06:24:26.052Z,-2.84
2022-12-14T06:26:52.527Z,-2.79
2022-12-14T06:29:20.022Z,-2.82
2022-12-14T06:31:49.288Z,-2.62
2022-12-14T06:34:16.810Z,-2.69
2022-12-14T06:36:43.234Z,-2.83
2022-12-14T06:39:15.722Z,-2.82
2022-12-14T06:41:42.851Z,-2.79
2022-12-14T06:44:14.007Z,-2.76
2022-12-14T06:46:41.562Z,-2.74
2022-12-14T06:49:11.531Z,-2.72
2022-12-14T06:51:39.612Z,-2.75
2022-12-14T06:54:06.820Z,-2.79
2022-12-14T06:56:33.231Z,-2.72
2022-12-14T06:58:59.841Z,-2.69
2022-12-14T07:01:26.527Z,-2.74
2022-12-14T07:03:57.088Z,-2.70
2022-12-14T07:06:25.375Z,-2.70
2022-12-14T07:08:57.360Z,-2.66
2022-12-14T07:11:29.214Z,-2.70
2022-12-14T07:13:56.465Z,-2.69
2022-12-14T07:16:25.182Z,-2.66
2022-12-14T07:18:53.385Z,-2.68
2022-12-14T07:21:20.813Z,-2.67
2022-12-14T07:23:48.808Z,-2.63
2022-12-14T07:26:16.346Z,-2.60
2022-12-14T07:28:43.648Z,-2.61
2022-12-14T07:31:12.933Z,-2.61
2022-12-14T07:33:39.719Z,-2.64
2022-12-14T07:36:11.932Z,-2.61
2022-12-14T07:38:40.446Z,-2.61
2022-12-14T07:41:15.517Z,-2.61
2022-12-14T07:43:45.809Z,-2.60
2022-12-14T07:46:17.918Z,-2.49
2022-12-14T07:48:49.303Z,-2.43
2022-12-14T07:51:18.301Z,-2.36
2022-12-14T07:53:44.956Z,-2.35
2022-12-14T07:56:14.177Z,-2.39
2022-12-14T07:58:41.156Z,-2.39
2022-12-14T08:01:17.381Z,-2.31
2022-12-14T08:03:46.145Z,-2.34
2022-12-14T08:06:13.921Z,-2.28
2022-12-14T08:08:40.551Z,-2.20
2022-12-14T08:11:07.683Z,-2.17
2022-12-14T08:13:35.225Z,-2.09
2022-12-14T08:16:03.904Z,-1.98
2022-12-14T08:18:30.737Z,-2.01
2022-12-14T08:20:57.180Z,-2.01
2022-12-14T08:23:23.929Z,-1.97
2022-12-14T08:25:54.698Z,-1.96
2022-12-14T08:28:21.944Z,-2.08
2022-12-14T08:30:48.579Z,-2.16
2022-12-14T08:33:15.372Z,-2.14
2022-12-14T08:35:41.820Z,-2.02
2022-12-14T08:38:08.313Z,-1.94
2022-12-14T08:40:36.105Z,-1.88
2022-12-14T08:43:02.623Z,-1.81
2022-12-14T08:45:29.037Z,-1.67
2022-12-14T08:47:59.007Z,-1.75
2022-12-14T08:50:26.600Z,-1.84
2022-12-14T08:52:53.674Z,-1.92
2022-12-14T08:55:25.713Z,-1.78
2022-12-14T08:57:55.000Z,-1.80
2022-12-14T09:00:21.350Z,-1.81
2022-12-14T09:02:50.314Z,-1.72
2022-12-14T09:05:16.956Z,-1.64
2022-12-14T09:07:43.383Z,-1.66
2022-12-14T09:10:09.923Z,-1.66
2022-12-14T09:12:36.564Z,-1.59
2022-12-14T09:15:03.106Z,-1.46
2022-12-14T09:17:29.577Z,-1.44
2022-12-14T09:19:56.060Z,-1.35
2022-12-14T09:22:22.460Z,-1.48
2022-12-14T09:24:48.986Z,-1.58
2022-12-14T09:27:15.300Z,-1.45
2022-12-14T09:29:41.808Z,-1.26
2022-12-14T09:32:08.265Z,-1.27
2022-12-14T09:34:34.601Z,-1.34
2022-12-14T09:37:01.051Z,-1.30
2022-12-14T09:39:28.078Z,-1.26
2022-12-14T09:42:16.057Z,-1.34
2022-12-14T09:44:56.242Z,-1.36
2022-12-14T09:47:37.995Z,-1.55
2022-12-14T09:50:11.033Z,-1.64
2022-12-14T09:52:45.353Z,-1.74
2022-12-14T09:55:41.345Z,-1.65
2022-12-14T09:58:18.942Z,-1.64
2022-12-14T10:01:04.139Z,-1.64
2022-12-14T10:03:51.836Z,-1.64
2022-12-14T10:06:51.007Z,-1.71
2022-12-14T10:09:30.776Z,-1.76
2022-12-14T10:12:16.554Z,-1.87
2022-12-14T10:15:20.821Z,-1.84
2022-12-14T10:17:55.981Z,-1.76
2022-12-14T10:20:47.929Z,-1.70
2022-12-14T10:23:22.778Z,-1.81
2022-12-14T10:25:54.102Z,-1.77
2022-12-14T10:28:22.630Z,-1.83
2022-12-14T10:30:52.513Z,-1.76
2022-12-14T10:33:26.643Z,-1.72
2022-12-14T10:35:55.468Z,-1.61
2022-12-14T10:38:36.794Z,-1.71
2022-12-14T10:41:23.204Z,-1.75
2022-12-14T10:44:11.137Z,-1.78
2022-12-14T10:46:40.358Z,-1.74
2022-12-14T10:49:22.394Z,-1.64
2022-12-14T10:52:00.138Z,-1.45
2022-12-14T10:54:33.826Z,-1.31
2022-12-14T10:57:01.003Z,-1.11
2022-12-14T10:59:43.766Z,-0.97
2022-12-14T11:02:28.162Z,-0.91
2022-12-14T11:04:58.279Z,-0.74
2022-12-14T11:07:33.706Z,-0.56
2022-12-14T11:10:27.854Z,-0.40
2022-12-14T11:13:12.757Z,-0.44
2022-12-14T11:15:45.128Z,-0.36
2022-12-14T11:18:17.913Z,-0.49
2022-12-14T11:20:59.843Z,-0.59
2022-12-14T11:23:30.691Z,-0.66
2022-12-14T11:25:58.334Z,-0.72
2022-12-14T11:28:37.392Z,-0.73
2022-12-14T11:31:14.214Z,-0.74
2022-12-14T11:33:50.317Z,-0.83
2022-12-14T11:36:34.030Z,-0.70
2022-12-14T11:39:01.615Z,-0.71
2022-12-14T11:41:36.663Z,-0.81
2022-12-14T11:44:23.485Z,-0.86
2022-12-14T11:46:53.920Z,-0.78
2022-12-14T11:49:47.919Z,-0.78
2022-12-14T11:52:15.888Z,-0.79
2022-12-14T11:54:49.876Z,-0.78
2022-12-14T11:57:30.513Z,-0.79
2022-12-14T12:00:20.536Z,-0.88
2022-12-14T12:03:39.696Z,-0.82
2022-12-14T12:06:09.621Z,-0.87
2022-12-14T12:08:39.633Z,-0.90
2022-12-14T12:11:24.333Z,-0.84
2022-12-14T12:13:56.933Z,-0.86
2022-12-14T12:16:26.596Z,-0.75
2022-12-14T12:19:11.641Z,-0.61
2022-12-14T12:21:43.879Z,-0.46
2022-12-14T12:24:20.693Z,-0.54
2022-12-14T12:27:02.899Z,-0.73
2022-12-14T12:29:35.271Z,-0.65
2022-12-14T12:32:10.325Z,-0.66
2022-12-14T12:34:45.829Z,-0.75
2022-12-14T12:37:31.268Z,-0.72
2022-12-14T12:40:03.494Z,-0.80
2022-12-14T12:42:45.325Z,-0.56
2022-12-14T12:45:27.177Z,-0.57
2022-12-14T12:48:01.567Z,-0.60
2022-12-14T12:50:35.939Z,-0.56
2022-12-14T12:53:17.273Z,-0.53
2022-12-14T12:55:55.271Z,-0.52
2022-12-14T12:58:32.195Z,-0.46
2022-12-14T13:01:04.632Z,-0.45
2022-12-14T13:03:42.352Z,-0.58
2022-12-14T13:06:21.874Z,-0.57
2022-12-14T13:08:53.387Z,-0.55
2022-12-14T13:11:27.008Z,-0.62
2022-12-14T13:14:00.350Z,-0.72
2022-12-14T13:16:34.972Z,-0.72
2022-12-14T13:19:50.243Z,-0.80
2022-12-14T13:22:27.775Z,-0.83
2022-12-14T13:24:59.484Z,-0.82
2022-12-14T13:27:53.641Z,-0.81
2022-12-14T13:30:43.056Z,-0.81
2022-12-14T13:33:41.176Z,-0.82
2022-12-14T13:36:45.707Z,-0.89
2022-12-14T13:39:22.602Z,-0.95
2022-12-14T13:42:07.243Z,-0.98
2022-12-14T13:44:44.708Z,-0.98
2022-12-14T13:47:15.366Z,-0.93
2022-12-14T13:50:05.192Z,-0.85
2022-12-14T13:52:43.150Z,-0.81
2022-12-14T13:55:31.036Z,-0.75
2022-12-14T13:58:34.700Z,-0.74
2022-12-14T14:01:04.770Z,-0.67
2022-12-14T14:03:34.010Z,-0.58
2022-12-14T14:06:01.587Z,-0.59
2022-12-14T14:08:39.324Z,-0.53
2022-12-14T14:11:36.569Z,-0.58
2022-12-14T14:14:18.412Z,-0.65
2022-12-14T14:16:50.026Z,-0.59
2022-12-14T14:19:22.143Z,-0.59
2022-12-14T14:22:26.597Z,-0.65
2022-12-14T14:25:00.951Z,-0.72
2022-12-14T14:27:50.793Z,-0.73
2022-12-14T14:30:32.746Z,-0.74
2022-12-14T14:33:20.426Z,-0.78
2022-12-14T14:35:49.800Z,-0.76
2022-12-14T14:38:30.950Z,-0.80
2022-12-14T14:41:18.804Z,-0.76
2022-12-14T14:43:55.582Z,-0.76
2022-12-14T14:46:34.680Z,-0.83
2022-12-14T14:49:01.582Z,-0.86
2022-12-14T14:51:33.109Z,-0.92
2022-12-14T14:54:46.277Z,-0.92
2022-12-14T14:57:52.705Z,-0.99
2022-12-14T15:00:19.251Z,-1.01
2022-12-14T15:02:46.302Z,-1.08
2022-12-14T15:05:41.565Z,-1.10
2022-12-14T15:08:11.640Z,-1.17
2022-12-14T15:10:42.794Z,-1.22
2022-12-14T15:13:20.705Z,-1.29
2022-12-14T15:15:52.069Z,-1.33
2022-12-14T15:18:25.745Z,-1.30
2022-12-14T15:21:12.639Z,-1.37
2022-12-14T15:23:44.097Z,-1.43
2022-12-14T15:26:23.588Z,-1.45
2022-12-14T15:28:52.546Z,-1.47
2022-12-14T15:31:28.730Z,-1.48
2022-12-14T15:33:56.087Z,-1.47
2022-12-14T15:36:33.350Z,-1.49
2022-12-14T15:39:00.088Z,-1.51
2022-12-14T15:41:29.946Z,-1.51
2022-12-14T15:44:00.118Z,-1.55
2022-12-14T15:46:33.533Z,-1.59
2022-12-14T15:49:04.346Z,-1.60
2022-12-14T15:51:34.493Z,-1.64
2022-12-14T15:54:03.387Z,-1.62
2022-12-14T15:56:44.750Z,-1.63
2022-12-14T15:59:18.288Z,-1.69
2022-12-14T16:01:53.524Z,-1.68
2022-12-14T16:04:23.327Z,-1.71
2022-12-14T16:07:01.712Z,-1.68
2022-12-14T16:09:40.201Z,-1.69
2022-12-14T16:12:18.337Z,-1.66
2022-12-14T16:14:53.823Z,-1.65
2022-12-14T16:17:28.226Z,-1.63
2022-12-14T16:20:09.404Z,-1.66
2022-12-14T16:22:41.337Z,-1.67
2022-12-14T16:25:07.721Z,-1.68
2022-12-14T16:27:39.844Z,-1.66
2022-12-14T16:30:17.329Z,-1.68
2022-12-14T16:32:49.801Z,-1.65
2022-12-14T16:35:23.206Z,-1.65
2022-12-14T16:37:52.476Z,-1.63
2022-12-14T16:40:32.137Z,-1.72
2022-12-14T16:42:58.724Z,-1.72
2022-12-14T16:46:00.413Z,-1.79
2022-12-14T16:48:26.930Z,-1.73
2022-12-14T16:51:28.628Z,-1.75
2022-12-14T16:54:02.645Z,-1.74
2022-12-14T16:56:45.058Z,-1.69
2022-12-14T16:59:48.475Z,-1.82
2022-12-14T17:02:30.149Z,-1.86
2022-12-14T17:04:58.622Z,-1.82
2022-12-14T17:07:27.552Z,-1.77
2022-12-14T17:09:54.617Z,-1.83
2022-12-14T17:12:21.120Z,-1.79
2022-12-14T17:14:49.993Z,-1.76
2022-12-14T17:17:22.394Z,-1.78
2022-12-14T17:19:49.216Z,-1.84
2022-12-14T17:22:21.972Z,-1.82
2022-12-14T17:24:48.407Z,-1.83
2022-12-14T17:27:17.517Z,-1.88
2022-12-14T17:29:44.531Z,-1.91
2022-12-14T17:32:12.993Z,-1.97
2022-12-14T17:34:39.910Z,-1.99
2022-12-14T17:37:17.175Z,-2.00
2022-12-14T17:39:44.575Z,-2.01
2022-12-14T17:42:13.371Z,-1.97
2022-12-14T17:44:41.883Z,-1.91
2022-12-14T17:47:13.318Z,-1.93
2022-12-14T17:49:40.404Z,-1.95
2022-12-14T17:52:07.555Z,-1.96
2022-12-14T17:54:34.277Z,-1.95
2022-12-14T17:57:01.160Z,-1.94
2022-12-14T17:59:28.084Z,-1.92
2022-12-14T18:01:54.612Z,-1.99
2022-12-14T18:04:21.052Z,-1.95
2022-12-14T18:06:47.472Z,-1.96
2022-12-14T18:09:14.004Z,-2.02
2022-12-14T18:12:00.165Z,-1.99
2022-12-14T18:14:26.910Z,-1.98
2022-12-14T18:16:53.370Z,-2.06
2022-12-14T18:19:20.092Z,-2.01
2022-12-14T18:21:46.728Z,-2.00
2022-12-14T18:24:15.351Z,-1.99
2022-12-14T18:26:41.947Z,-1.99
2022-12-14T18:29:08.337Z,-2.00
2022-12-14T18:31:37.433Z,-2.01
2022-12-14T18:34:04.680Z,-2.04
2022-12-14T18:36:31.446Z,-2.06
2022-12-14T18:38:57.839Z,-2.13
2022-12-14T18:41:26.132Z,-2.10
2022-12-14T18:43:52.805Z,-2.10
2022-12-14T18:46:19.272Z,-2.06
2022-12-14T18:48:46.102Z,-2.10
2022-12-14T18:51:14.273Z,-2.12
2022-12-14T18:53:40.942Z,-2.13
2022-12-14T18:56:09.520Z,-2.20
2022-12-14T18:58:36.482Z,-2.18
2022-12-14T19:01:03.082Z,-2.16
2022-12-14T19:03:32.560Z,-2.14
2022-12-14T19:06:34.761Z,-2.10
2022-12-14T19:08:51.827Z,-2.15
2022-12-14T19:11:31.386Z,-2.17
2022-12-14T19:13:58.318Z,-2.16
2022-12-14T19:16:25.100Z,-2.16
2022-12-14T19:18:51.931Z,-2.14
2022-12-14T19:21:19.022Z,-2.14
2022-12-14T19:23:47.409Z,-2.14
2022-12-14T19:26:14.141Z,-2.15
2022-12-14T19:28:40.500Z,-2.13
2022-12-14T19:31:10.309Z,-2.17
2022-12-14T19:33:37.225Z,-2.15
2022-12-14T19:36:08.387Z,-2.16
2022-12-14T19:38:35.650Z,-2.15
2022-12-14T19:41:06.594Z,-2.19
2022-12-14T19:43:34.420Z,-2.17
2022-12-14T19:46:06.170Z,-2.17
2022-12-14T19:48:32.679Z,-2.17
2022-12-14T19:51:03.537Z,-2.17
2022-12-14T19:53:33.898Z,-2.19
2022-12-14T19:56:00.555Z,-2.18
2022-12-14T19:58:28.260Z,-2.21
2022-12-14T20:00:54.904Z,-2.21
2022-12-14T20:03:22.441Z,-2.21
2022-12-14T20:05:57.353Z,-2.20
2022-12-14T20:08:24.503Z,-2.13
2022-12-14T20:10:52.145Z,-2.15
2022-12-14T20:13:18.844Z,-2.18
2022-12-14T20:15:51.213Z,-2.14
2022-12-14T20:18:18.350Z,-2.13
2022-12-14T20:20:45.668Z,-2.14
2022-12-14T20:23:16.396Z,-2.15
2022-12-14T20:25:42.922Z,-2.16
2022-12-14T20:28:09.423Z,-2.19
2022-12-14T20:30:41.322Z,-2.22
2022-12-14T20:33:07.652Z,-2.20
2022-12-14T20:35:34.184Z,-2.17
2022-12-14T20:38:00.564Z,-2.15
2022-12-14T20:40:27.127Z,-2.20
2022-12-14T20:42:54.251Z,-2.18
2022-12-14T20:45:20.663Z,-2.20
2022-12-14T20:47:47.209Z,-2.16
2022-12-14T20:50:13.710Z,-2.13
2022-12-14T20:52:40.279Z,-2.12
2022-12-14T20:55:07.179Z,-2.13
2022-12-14T20:57:33.710Z,-2.12
2022-12-14T21:00:00.153Z,-2.12
2022-12-14T21:02:26.772Z,-2.13
2022-12-14T21:04:53.447Z,-2.14
2022-12-14T21:07:24.381Z,-2.10
2022-12-14T21:09:53.356Z,-2.09
2022-12-14T21:12:19.658Z,-2.11
2022-12-14T21:14:46.567Z,-2.10
2022-12-14T21:17:15.091Z,-2.11
2022-12-14T21:19:41.692Z,-2.10
2022-12-14T21:22:12.183Z,-2.08
2022-12-14T21:27:28.336Z,-2.16
2022-12-14T21:29:54.727Z,-2.13
2022-12-14T21:32:22.130Z,-2.12
2022-12-14T21:34:49.378Z,-2.15
2022-12-14T21:37:16.096Z,-2.21
2022-12-14T21:39:51.929Z,-2.28
2022-12-14T21:42:20.251Z,-2.32
2022-12-14T21:44:48.788Z,-2.29
2022-12-14T21:47:24.650Z,-2.27
2022-12-14T21:49:51.321Z,-2.28
2022-12-14T21:52:20.419Z,-2.25
2022-12-14T21:54:46.928Z,-2.22
2022-12-14T21:57:24.115Z,-2.21
2022-12-14T21:59:50.659Z,-2.18
2022-12-14T22:02:20.208Z,-2.17
2022-12-14T22:04:47.181Z,-2.26
2022-12-14T22:07:20.540Z,-2.30
2022-12-14T22:09:49.677Z,-2.28
2022-12-14T22:12:18.431Z,-2.25
2022-12-14T22:14:44.814Z,-2.26
2022-12-14T22:17:12.783Z,-2.25
2022-12-14T22:19:39.207Z,-2.24
2022-12-14T22:22:05.796Z,-2.28
2022-12-14T22:24:32.321Z,-2.26
2022-12-14T22:26:58.973Z,-2.26
2022-12-14T22:29:27.092Z,-2.25
2022-12-14T22:31:53.600Z,-2.28
2022-12-14T22:34:22.451Z,-2.30
2022-12-14T22:36:50.269Z,-2.34
2022-12-14T22:39:18.134Z,-2.40
2022-12-14T22:41:44.725Z,-2.43
2022-12-14T22:44:12.288Z,-2.42
2022-12-14T22:46:41.462Z,-2.46
2022-12-14T22:49:08.344Z,-2.43
2022-12-14T22:51:34.807Z,-2.38
2022-12-14T22:54:01.180Z,-2.35
2022-12-14T22:56:42.083Z,-2.35
2022-12-14T22:59:20.434Z,-2.34
2022-12-14T23:01:49.647Z,-2.36
2022-12-14T23:04:17.536Z,-2.39
2022-12-14T23:06:44.859Z,-2.38
2022-12-14T23:09:11.272Z,-2.38
2022-12-14T23:11:37.695Z,-2.36
2022-12-14T23:14:04.178Z,-2.36
2022-12-14T23:16:30.501Z,-2.38
2022-12-14T23:18:56.901Z,-2.40
2022-12-14T23:21:23.256Z,-2.47
2022-12-14T23:23:49.680Z,-2.47
2022-12-14T23:26:16.119Z,-2.51
2022-12-14T23:28:42.523Z,-2.54
2022-12-14T23:31:10.790Z,-2.58
2022-12-14T23:33:37.812Z,-2.52
2022-12-14T23:36:04.578Z,-2.51
2022-12-14T23:38:30.914Z,-2.54
2022-12-14T23:41:01.956Z,-2.55
2022-12-14T23:43:28.837Z,-2.47
2022-12-14T23:45:55.710Z,-2.44
2022-12-14T23:48:22.373Z,-2.45
2022-12-14T23:50:48.891Z,-2.44
2022-12-14T23:53:15.537Z,-2.40
2022-12-14T23:55:42.249Z,-2.43
2022-12-14T23:58:08.618Z,-2.41
